Lowell, Arizona
Current Conditions -  °F | °C
As of 2:56 PM on Saturday 25 Oct 2014 (Local Time) from KDUG Reporting Station
Clear Clear  
Wind Chill: 85°   Ceiling: Unl
Heat Index: 85°   Visibility: 10mi
Dew Point: 45°   Wind: 5mph
Humidity: 25%   Direction: 210°SSW
Pressure: 30.15"   Gusts: NA
Location:  31.4799°N, 109.96°W
Report Text: KDUG 252156Z AUTO 21004KT 10SM CLR 29/07 A3015 RMK AO2 SLP151 T02940072
Loading
Personal Weather Stations






























Interactive Weather Map
Tropical Storm Tracking
New forecast layout! Learn more

10-Day Weather Forecast

Advertisements
Track Severe Weather on mobile